createdAt,value
2023-10-26T00:01:20.627Z,13.97
2023-10-26T00:03:49.021Z,14.00
2023-10-26T00:06:17.424Z,14.00
2023-10-26T00:08:45.635Z,13.89
2023-10-26T00:11:13.749Z,13.76
2023-10-26T00:13:41.880Z,13.56
2023-10-26T00:16:10.203Z,13.53
2023-10-26T00:18:38.193Z,13.65
2023-10-26T00:21:06.398Z,13.79
2023-10-26T00:23:34.589Z,13.86
2023-10-26T00:26:02.608Z,13.79
2023-10-26T00:28:30.617Z,13.83
2023-10-26T00:30:59.094Z,13.96
2023-10-26T00:33:27.289Z,14.07
2023-10-26T00:35:55.456Z,14.11
2023-10-26T00:38:23.446Z,14.13
2023-10-26T00:40:51.523Z,14.18
2023-10-26T00:43:21.392Z,14.23
2023-10-26T00:45:52.611Z,14.24
2023-10-26T00:48:21.352Z,14.24
2023-10-26T00:50:49.802Z,14.24
2023-10-26T00:53:19.929Z,14.14
2023-10-26T00:55:52.552Z,13.81
2023-10-26T00:58:21.716Z,13.48
2023-10-26T01:00:49.819Z,13.36
2023-10-26T01:03:17.914Z,13.25
2023-10-26T01:05:47.475Z,13.28
2023-10-26T01:08:15.923Z,13.36
2023-10-26T01:10:44.023Z,13.41
2023-10-26T01:13:12.171Z,13.42
2023-10-26T01:15:41.409Z,13.36
2023-10-26T01:18:09.587Z,13.28
2023-10-26T01:20:41.305Z,13.32
2023-10-26T01:23:09.570Z,13.36
2023-10-26T01:25:38.048Z,13.37
2023-10-26T01:28:08.249Z,13.42
2023-10-26T01:30:36.218Z,13.50
2023-10-26T01:33:04.348Z,13.64
2023-10-26T01:35:47.107Z,13.70
2023-10-26T01:38:15.296Z,13.73
2023-10-26T01:40:43.368Z,13.32
2023-10-26T01:43:11.548Z,12.65
2023-10-26T01:45:39.747Z,12.67
2023-10-26T01:48:07.835Z,12.84
2023-10-26T01:50:36.348Z,12.94
2023-10-26T01:53:04.419Z,12.98
2023-10-26T01:55:32.690Z,13.01
2023-10-26T01:58:00.756Z,13.08
2023-10-26T02:00:28.999Z,13.17
2023-10-26T02:02:57.409Z,13.37
2023-10-26T02:05:26.682Z,13.37
2023-10-26T02:07:54.930Z,13.47
2023-10-26T02:10:25.213Z,13.55
2023-10-26T02:12:53.279Z,13.75
2023-10-26T02:15:21.563Z,13.82
2023-10-26T02:17:50.209Z,13.85
2023-10-26T02:20:18.350Z,13.92
2023-10-26T02:22:48.083Z,13.97
2023-10-26T02:25:16.661Z,13.87
2023-10-26T02:27:44.903Z,13.72
2023-10-26T02:30:13.415Z,13.51
2023-10-26T02:32:42.009Z,13.38
2023-10-26T02:35:10.499Z,13.48
2023-10-26T02:37:41.987Z,13.48
2023-10-26T02:40:10.793Z,13.48
2023-10-26T02:42:40.340Z,13.47
2023-10-26T02:45:09.376Z,13.62
2023-10-26T02:47:39.143Z,13.76
2023-10-26T02:50:07.788Z,13.84
2023-10-26T02:52:36.984Z,13.81
2023-10-26T02:55:06.697Z,13.75
2023-10-26T02:57:34.759Z,13.77
2023-10-26T03:00:03.843Z,13.96
2023-10-26T03:02:32.100Z,14.07
2023-10-26T03:05:00.251Z,14.19
2023-10-26T03:07:28.444Z,14.29
2023-10-26T03:09:57.016Z,14.26
2023-10-26T03:12:25.133Z,14.07
2023-10-26T03:14:53.938Z,14.04
2023-10-26T03:17:22.031Z,14.11
2023-10-26T03:19:50.057Z,14.14
2023-10-26T03:22:18.032Z,14.20
2023-10-26T03:24:46.226Z,14.20
2023-10-26T03:27:14.460Z,14.19
2023-10-26T03:29:43.774Z,14.19
2023-10-26T03:32:12.623Z,13.97
2023-10-26T03:34:40.724Z,13.69
2023-10-26T03:37:09.977Z,13.55
2023-10-26T03:39:38.195Z,13.40
2023-10-26T03:42:06.524Z,13.14
2023-10-26T03:44:34.542Z,13.03
2023-10-26T03:47:02.922Z,12.93
2023-10-26T03:49:30.994Z,12.87
2023-10-26T03:51:59.014Z,12.85
2023-10-26T03:54:27.178Z,12.73
2023-10-26T03:56:55.249Z,12.67
2023-10-26T03:59:23.395Z,12.68
2023-10-26T04:01:51.491Z,12.75
2023-10-26T04:04:19.659Z,12.83
2023-10-26T04:06:47.656Z,12.86
2023-10-26T04:09:15.917Z,12.87
2023-10-26T04:11:45.896Z,12.79
2023-10-26T04:14:13.959Z,12.68
2023-10-26T04:16:42.045Z,12.73
2023-10-26T04:19:10.137Z,12.86
2023-10-26T04:21:38.186Z,12.94
2023-10-26T04:24:06.262Z,13.00
2023-10-26T04:26:34.453Z,13.05
2023-10-26T04:29:02.520Z,13.01
2023-10-26T04:31:30.526Z,13.08
2023-10-26T04:33:59.607Z,13.05
2023-10-26T04:36:27.842Z,12.86
2023-10-26T04:38:55.981Z,12.68
2023-10-26T04:41:24.163Z,12.53
2023-10-26T04:43:52.291Z,12.36
2023-10-26T04:46:20.427Z,12.15
2023-10-26T04:48:48.836Z,12.20
2023-10-26T04:51:17.072Z,12.21
2023-10-26T04:53:45.221Z,12.28
2023-10-26T04:56:13.300Z,12.28
2023-10-26T04:58:41.883Z,12.18
2023-10-26T05:01:10.237Z,12.11
2023-10-26T05:03:39.459Z,12.12
2023-10-26T05:06:08.202Z,12.17
2023-10-26T05:08:36.441Z,12.42
2023-10-26T05:11:04.627Z,12.69
2023-10-26T05:13:32.972Z,12.84
2023-10-26T05:16:01.334Z,12.96
2023-10-26T05:18:29.699Z,13.10
2023-10-26T05:20:57.848Z,13.16
2023-10-26T05:23:25.913Z,13.31
2023-10-26T05:25:54.045Z,13.46
2023-10-26T05:28:22.189Z,13.64
2023-10-26T05:30:50.229Z,13.74
2023-10-26T05:33:18.474Z,13.73
2023-10-26T05:35:46.559Z,13.74
2023-10-26T05:38:18.056Z,13.84
2023-10-26T05:40:50.991Z,13.87
2023-10-26T05:43:19.113Z,13.94
2023-10-26T05:45:47.184Z,14.02
2023-10-26T05:48:15.358Z,14.25
2023-10-26T05:50:44.202Z,14.35
2023-10-26T05:53:12.186Z,14.34
2023-10-26T05:55:43.207Z,14.29
2023-10-26T05:58:11.393Z,14.10
2023-10-26T06:00:40.002Z,13.92
2023-10-26T06:03:08.659Z,13.80
2023-10-26T06:05:37.133Z,13.77
2023-10-26T06:08:05.476Z,13.80
2023-10-26T06:10:34.034Z,13.86
2023-10-26T06:13:03.908Z,13.98
2023-10-26T06:15:32.202Z,14.05
2023-10-26T06:18:00.618Z,14.13
2023-10-26T06:20:29.374Z,14.16
2023-10-26T06:22:57.765Z,14.16
2023-10-26T06:25:30.185Z,14.32
2023-10-26T06:27:58.327Z,14.48
2023-10-26T06:30:26.451Z,14.67
2023-10-26T06:32:54.557Z,14.82
2023-10-26T06:35:22.736Z,14.94
2023-10-26T06:37:50.850Z,15.01
2023-10-26T06:40:18.842Z,15.05
2023-10-26T06:42:46.973Z,15.07
2023-10-26T06:45:15.102Z,14.95
2023-10-26T06:47:43.873Z,14.93
2023-10-26T06:50:12.064Z,14.96
2023-10-26T06:52:40.274Z,14.96
2023-10-26T06:55:15.528Z,14.84
2023-10-26T06:57:48.090Z,14.75
2023-10-26T07:00:16.865Z,14.69
2023-10-26T07:02:45.697Z,14.62
2023-10-26T07:05:14.268Z,14.60
2023-10-26T07:07:42.254Z,14.63
2023-10-26T07:10:16.435Z,14.69
2023-10-26T07:12:44.962Z,14.69
2023-10-26T07:15:13.487Z,14.75
2023-10-26T07:17:41.616Z,14.94
2023-10-26T07:20:10.362Z,15.13
2023-10-26T07:22:39.865Z,15.29
2023-10-26T07:25:08.315Z,15.31
2023-10-26T07:27:36.567Z,15.30
2023-10-26T07:30:05.057Z,15.33
2023-10-26T07:32:33.373Z,15.43
2023-10-26T07:35:02.894Z,15.46
2023-10-26T07:37:31.154Z,15.48
2023-10-26T07:42:47.332Z,15.68
2023-10-26T07:45:15.520Z,15.81
2023-10-26T07:47:43.933Z,15.88
2023-10-26T07:50:12.830Z,15.86
2023-10-26T07:52:41.012Z,15.86
2023-10-26T07:55:11.750Z,15.83
2023-10-26T07:57:40.126Z,15.78
2023-10-26T08:00:09.451Z,15.77
2023-10-26T08:02:41.822Z,15.78
2023-10-26T08:05:11.020Z,15.87
2023-10-26T08:07:39.609Z,15.93
2023-10-26T08:10:08.811Z,16.16
2023-10-26T08:12:55.865Z,16.46
2023-10-26T08:16:30.179Z,16.77
2023-10-26T08:18:13.524Z,17.06
2023-10-26T08:20:41.962Z,17.29
2023-10-26T08:23:10.086Z,17.45
2023-10-26T08:25:38.355Z,17.65
2023-10-26T08:28:06.644Z,17.83
2023-10-26T08:30:34.654Z,18.00
2023-10-26T08:33:05.724Z,18.05
2023-10-26T08:35:34.238Z,18.19
2023-10-26T08:38:02.258Z,18.28
2023-10-26T08:40:31.349Z,18.35
2023-10-26T08:43:01.149Z,18.31
2023-10-26T08:45:30.911Z,18.30
2023-10-26T08:47:59.083Z,18.19
2023-10-26T08:50:27.340Z,18.07
2023-10-26T08:52:57.649Z,18.03
2023-10-26T08:55:26.541Z,17.87
2023-10-26T08:58:01.910Z,17.80
2023-10-26T09:00:30.815Z,17.73
2023-10-26T09:02:59.694Z,17.74
2023-10-26T09:05:28.226Z,17.77
2023-10-26T09:07:56.471Z,17.77
2023-10-26T09:10:31.604Z,17.77
2023-10-26T09:13:04.464Z,17.75
2023-10-26T09:15:46.362Z,17.74
2023-10-26T09:18:16.648Z,17.84
2023-10-26T09:21:01.452Z,17.88
2023-10-26T09:23:30.209Z,17.89
2023-10-26T09:25:59.270Z,17.89
2023-10-26T09:28:27.479Z,17.88
2023-10-26T09:31:03.459Z,17.85
2023-10-26T09:33:32.653Z,17.86
2023-10-26T09:36:11.722Z,17.95
2023-10-26T09:38:40.556Z,18.03
2023-10-26T09:41:20.132Z,18.08
2023-10-26T09:43:49.347Z,18.08
2023-10-26T09:46:21.580Z,18.03
2023-10-26T09:48:50.263Z,18.07
2023-10-26T09:51:20.138Z,18.21
2023-10-26T09:53:49.667Z,18.25
2023-10-26T09:56:24.224Z,18.21
2023-10-26T09:58:54.051Z,18.21
2023-10-26T10:01:41.044Z,18.32
2023-10-26T10:04:12.761Z,18.47
2023-10-26T10:06:44.992Z,18.60
2023-10-26T10:09:13.754Z,18.76
2023-10-26T10:11:42.013Z,18.90
2023-10-26T10:14:10.197Z,18.98
2023-10-26T10:16:50.456Z,19.05
2023-10-26T10:19:27.269Z,19.14
2023-10-26T10:21:55.713Z,19.30
2023-10-26T10:24:46.508Z,19.41
2023-10-26T10:27:19.583Z,19.39
2023-10-26T10:29:48.564Z,19.46
2023-10-26T10:32:35.790Z,19.60
2023-10-26T10:35:06.351Z,19.70
2023-10-26T10:37:34.422Z,19.73
2023-10-26T10:40:13.516Z,19.81
2023-10-26T10:42:46.620Z,19.78
2023-10-26T10:45:14.758Z,19.70
2023-10-26T10:47:43.756Z,19.59
2023-10-26T10:50:20.635Z,19.51
2023-10-26T10:52:49.528Z,19.48
2023-10-26T10:55:25.134Z,19.39
2023-10-26T10:58:03.420Z,19.36
2023-10-26T11:00:44.129Z,19.30
2023-10-26T11:03:38.605Z,19.32
2023-10-26T11:06:06.959Z,19.42
2023-10-26T11:08:39.687Z,19.53
2023-10-26T11:11:07.778Z,19.57
2023-10-26T11:13:35.953Z,19.49
2023-10-26T11:16:16.130Z,19.49
2023-10-26T11:18:44.283Z,19.54
2023-10-26T11:21:18.902Z,19.52
2023-10-26T11:23:51.798Z,19.40
2023-10-26T11:26:19.794Z,19.26
2023-10-26T11:28:48.170Z,19.25
2023-10-26T11:31:17.156Z,19.25
2023-10-26T11:33:45.808Z,19.23
2023-10-26T11:36:14.469Z,19.23
2023-10-26T11:38:52.502Z,19.27
2023-10-26T11:41:24.080Z,19.35
2023-10-26T11:43:52.432Z,19.41
2023-10-26T11:46:36.700Z,19.40
2023-10-26T11:49:06.444Z,19.41
2023-10-26T11:51:37.130Z,19.45
2023-10-26T11:54:13.081Z,19.52
2023-10-26T11:56:41.683Z,19.55
2023-10-26T11:59:09.869Z,19.57
2023-10-26T12:01:37.999Z,19.61
2023-10-26T12:04:11.375Z,19.59
2023-10-26T12:06:39.677Z,19.61
2023-10-26T12:09:07.806Z,19.60
2023-10-26T12:11:36.158Z,19.61
2023-10-26T12:14:04.193Z,19.64
2023-10-26T12:16:32.277Z,19.71
2023-10-26T12:19:00.606Z,19.78
2023-10-26T12:21:28.994Z,19.83
2023-10-26T12:23:57.791Z,19.85
2023-10-26T12:26:25.999Z,19.84
2023-10-26T12:28:54.205Z,19.79
2023-10-26T12:31:22.632Z,19.73
2023-10-26T12:33:51.654Z,19.65
2023-10-26T12:36:20.470Z,19.60
2023-10-26T12:38:48.658Z,19.58
2023-10-26T12:41:16.811Z,19.56
2023-10-26T12:43:44.791Z,19.49
2023-10-26T12:46:13.670Z,19.42
2023-10-26T12:48:41.812Z,19.42
2023-10-26T12:51:09.813Z,19.42
2023-10-26T12:53:37.943Z,19.49
2023-10-26T12:56:07.270Z,19.53
2023-10-26T12:58:35.249Z,19.54
2023-10-26T13:01:03.712Z,19.58
2023-10-26T13:03:31.958Z,19.64
2023-10-26T13:06:00.199Z,19.65
2023-10-26T13:08:29.131Z,19.61
2023-10-26T13:10:57.301Z,19.54
2023-10-26T13:13:25.375Z,19.49
2023-10-26T13:15:53.930Z,19.49
2023-10-26T13:18:22.714Z,19.34
2023-10-26T13:20:51.551Z,19.29
2023-10-26T13:23:19.659Z,19.36
2023-10-26T13:25:48.082Z,19.40
2023-10-26T13:28:16.356Z,19.45
2023-10-26T13:30:44.756Z,19.42
2023-10-26T13:33:13.980Z,19.42
2023-10-26T13:35:42.354Z,19.25
2023-10-26T13:38:16.424Z,18.91
2023-10-26T13:40:45.204Z,18.89
2023-10-26T13:43:16.878Z,18.84
2023-10-26T13:45:45.165Z,18.74
2023-10-26T13:48:14.881Z,18.65
2023-10-26T13:50:44.760Z,18.65
2023-10-26T13:53:15.285Z,18.52
2023-10-26T13:55:43.396Z,18.46
2023-10-26T13:58:11.507Z,18.49
2023-10-26T14:00:40.178Z,18.49
2023-10-26T14:03:08.338Z,18.47
2023-10-26T14:05:38.694Z,18.46
2023-10-26T14:08:06.893Z,18.46
2023-10-26T14:10:34.949Z,18.47
2023-10-26T14:13:05.328Z,18.52
2023-10-26T14:15:35.561Z,18.57
2023-10-26T14:18:03.705Z,18.61
2023-10-26T14:20:31.669Z,18.63
2023-10-26T14:23:01.787Z,18.64
2023-10-26T14:25:31.302Z,18.61
2023-10-26T14:27:59.311Z,18.53
2023-10-26T14:30:27.542Z,18.39
2023-10-26T14:32:55.642Z,18.25
2023-10-26T14:35:23.915Z,18.12
2023-10-26T14:37:52.021Z,17.99
2023-10-26T14:40:20.351Z,17.84
2023-10-26T14:42:48.704Z,17.67
2023-10-26T14:45:17.000Z,17.49
2023-10-26T14:47:45.168Z,17.36
2023-10-26T14:50:16.537Z,17.27
2023-10-26T14:52:44.833Z,17.17
2023-10-26T14:55:17.248Z,17.12
2023-10-26T14:57:45.463Z,17.09
2023-10-26T15:00:13.567Z,17.07
2023-10-26T15:02:41.668Z,17.02
2023-10-26T15:05:11.225Z,17.02
2023-10-26T15:07:39.221Z,17.00
2023-10-26T15:10:22.325Z,17.01
2023-10-26T15:12:54.965Z,16.99
2023-10-26T15:15:23.803Z,17.02
2023-10-26T15:17:52.692Z,17.04
2023-10-26T15:20:20.912Z,17.01
2023-10-26T15:22:49.175Z,17.00
2023-10-26T15:25:17.922Z,16.97
2023-10-26T15:27:46.039Z,16.94
2023-10-26T15:30:14.254Z,16.93
2023-10-26T15:32:42.435Z,16.92
2023-10-26T15:35:10.570Z,16.95
2023-10-26T15:37:38.893Z,17.01
2023-10-26T15:40:07.448Z,17.04
2023-10-26T15:42:35.578Z,17.03
2023-10-26T15:45:05.106Z,17.01
2023-10-26T15:47:33.568Z,16.97
2023-10-26T15:50:03.358Z,16.96
2023-10-26T15:52:32.436Z,16.90
2023-10-26T15:55:00.572Z,16.86
2023-10-26T15:57:30.575Z,16.83
2023-10-26T15:59:58.802Z,16.78
2023-10-26T16:02:26.911Z,16.75
2023-10-26T16:04:55.122Z,16.73
2023-10-26T16:07:23.060Z,16.71
2023-10-26T16:09:52.146Z,16.71
2023-10-26T16:12:23.435Z,16.73
2023-10-26T16:14:51.590Z,16.81
2023-10-26T16:17:19.700Z,16.83
2023-10-26T16:19:47.936Z,16.79
2023-10-26T16:22:17.353Z,16.57
2023-10-26T16:24:46.589Z,16.61
2023-10-26T16:27:14.835Z,16.68
2023-10-26T16:29:45.101Z,16.70
2023-10-26T16:32:15.041Z,16.67
2023-10-26T16:34:43.866Z,16.65
2023-10-26T16:37:12.091Z,16.66
2023-10-26T16:39:40.150Z,16.61
2023-10-26T16:42:10.999Z,16.60
2023-10-26T16:44:39.408Z,16.62
2023-10-26T16:47:07.710Z,16.67
2023-10-26T16:49:35.869Z,16.67
2023-10-26T16:52:04.207Z,16.70
2023-10-26T16:54:32.398Z,16.61
2023-10-26T16:57:00.656Z,16.67
2023-10-26T16:59:28.918Z,16.80
2023-10-26T17:01:57.144Z,16.81
2023-10-26T17:04:25.271Z,16.86
2023-10-26T17:06:55.312Z,16.88
2023-10-26T17:09:25.262Z,16.91
2023-10-26T17:11:53.367Z,16.94
2023-10-26T17:14:21.508Z,17.01
2023-10-26T17:16:49.550Z,17.07
2023-10-26T17:19:17.602Z,17.14
2023-10-26T17:21:45.581Z,17.21
2023-10-26T17:24:16.246Z,17.26
2023-10-26T17:26:44.673Z,17.28
2023-10-26T17:29:13.231Z,17.32
2023-10-26T17:31:43.065Z,17.34
2023-10-26T17:34:11.071Z,17.32
2023-10-26T17:36:39.051Z,17.28
2023-10-26T17:39:07.136Z,17.18
2023-10-26T17:41:35.450Z,17.11
2023-10-26T17:44:04.652Z,17.01
2023-10-26T17:46:32.875Z,16.72
2023-10-26T17:49:03.990Z,16.57
2023-10-26T17:51:34.068Z,16.59
2023-10-26T17:54:02.597Z,16.61
2023-10-26T17:56:37.311Z,16.62
2023-10-26T17:59:05.567Z,16.61
2023-10-26T18:01:37.958Z,16.65
2023-10-26T18:04:06.620Z,16.67
2023-10-26T18:06:36.357Z,16.68
2023-10-26T18:09:05.234Z,16.72
2023-10-26T18:11:33.419Z,16.74
2023-10-26T18:14:02.078Z,16.73
2023-10-26T18:16:32.987Z,16.58
2023-10-26T18:19:01.526Z,16.50
2023-10-26T18:21:30.326Z,16.45
2023-10-26T18:24:00.586Z,16.49
2023-10-26T18:26:28.784Z,16.49
2023-10-26T18:28:58.835Z,16.38
2023-10-26T18:31:27.678Z,16.12
2023-10-26T18:33:56.596Z,15.92
2023-10-26T18:36:29.733Z,15.89
2023-10-26T18:38:57.784Z,15.96
2023-10-26T18:41:26.843Z,15.94
2023-10-26T18:43:58.448Z,15.87
2023-10-26T18:46:27.023Z,15.76
2023-10-26T18:48:55.668Z,15.68
2023-10-26T18:51:24.621Z,15.58
2023-10-26T18:53:54.559Z,15.61
2023-10-26T18:56:23.859Z,15.79
2023-10-26T18:58:52.333Z,15.88
2023-10-26T19:01:21.643Z,15.88
2023-10-26T19:06:21.538Z,16.00
2023-10-26T19:08:51.187Z,16.09
2023-10-26T19:11:19.342Z,16.13
2023-10-26T19:13:48.534Z,16.16
2023-10-26T19:16:16.856Z,16.18
2023-10-26T19:18:45.027Z,16.12
2023-10-26T19:21:15.347Z,16.04
2023-10-26T19:23:43.372Z,15.98
2023-10-26T19:26:11.446Z,15.92
2023-10-26T19:28:41.482Z,15.84
2023-10-26T19:31:11.288Z,15.78
2023-10-26T19:33:42.794Z,15.68
2023-10-26T19:36:11.266Z,15.44
2023-10-26T19:38:41.491Z,15.24
2023-10-26T19:41:13.154Z,15.16
2023-10-26T19:43:41.574Z,15.11
2023-10-26T19:46:10.961Z,15.11
2023-10-26T19:48:39.173Z,15.01
2023-10-26T19:51:07.137Z,14.94
2023-10-26T19:53:36.700Z,14.88
2023-10-26T19:56:05.365Z,14.80
2023-10-26T19:58:34.963Z,14.81
2023-10-26T20:01:04.733Z,14.85
2023-10-26T20:03:32.967Z,14.89
2023-10-26T20:06:05.127Z,14.84
2023-10-26T20:08:33.218Z,14.86
2023-10-26T20:11:01.208Z,14.87
2023-10-26T20:13:29.567Z,14.78
2023-10-26T20:15:57.689Z,14.80
2023-10-26T20:18:25.768Z,14.78
2023-10-26T20:20:53.917Z,14.55
2023-10-26T20:23:21.900Z,14.45
2023-10-26T20:25:50.572Z,14.51
2023-10-26T20:28:19.983Z,14.59
2023-10-26T20:30:48.152Z,14.55
2023-10-26T20:33:20.336Z,14.39
2023-10-26T20:35:52.296Z,14.36
2023-10-26T20:38:20.877Z,14.42
2023-10-26T20:40:48.823Z,14.50
2023-10-26T20:43:16.948Z,14.59
2023-10-26T20:45:46.819Z,14.60
2023-10-26T20:48:14.774Z,14.55
2023-10-26T20:50:42.843Z,14.34
2023-10-26T20:53:10.856Z,14.29
2023-10-26T20:55:39.366Z,14.30
2023-10-26T20:58:07.419Z,14.27
2023-10-26T21:00:35.824Z,14.23
2023-10-26T21:03:03.939Z,14.26
2023-10-26T21:05:32.196Z,14.28
2023-10-26T21:08:00.265Z,14.29
2023-10-26T21:10:28.266Z,14.34
2023-10-26T21:12:56.520Z,14.34
2023-10-26T21:15:24.659Z,14.36
2023-10-26T21:17:52.661Z,14.32
2023-10-26T21:20:21.057Z,14.33
2023-10-26T21:22:49.043Z,14.23
2023-10-26T21:25:17.267Z,14.11
2023-10-26T21:27:45.384Z,14.04
2023-10-26T21:30:14.300Z,14.10
2023-10-26T21:32:42.460Z,14.11
2023-10-26T21:35:10.639Z,14.14
2023-10-26T21:37:38.626Z,14.17
2023-10-26T21:40:07.706Z,14.05
2023-10-26T21:42:35.918Z,13.90
2023-10-26T21:45:05.028Z,13.88
2023-10-26T21:47:33.285Z,13.94
2023-10-26T21:50:01.593Z,13.91
2023-10-26T21:52:29.682Z,13.92
2023-10-26T21:54:57.911Z,13.92
2023-10-26T21:57:25.901Z,13.96
2023-10-26T21:59:54.040Z,13.95
2023-10-26T22:02:22.332Z,13.82
2023-10-26T22:04:50.428Z,13.57
2023-10-26T22:07:21.569Z,13.55
2023-10-26T22:09:55.356Z,13.68
2023-10-26T22:12:23.854Z,13.83
2023-10-26T22:14:51.881Z,13.89
2023-10-26T22:17:20.022Z,13.83
2023-10-26T22:19:51.648Z,13.79
2023-10-26T22:22:19.959Z,13.81
2023-10-26T22:24:48.327Z,13.76
2023-10-26T22:27:16.356Z,13.80
2023-10-26T22:29:44.539Z,13.85
2023-10-26T22:32:12.772Z,13.75
2023-10-26T22:34:40.873Z,13.50
2023-10-26T22:37:09.208Z,13.35
2023-10-26T22:39:37.433Z,13.33
2023-10-26T22:42:05.734Z,13.35
2023-10-26T22:44:33.712Z,13.45
2023-10-26T22:47:01.772Z,13.54
2023-10-26T22:49:29.748Z,13.50
2023-10-26T22:51:58.150Z,13.48
2023-10-26T22:54:26.179Z,13.52
2023-10-26T22:56:54.298Z,13.49
2023-10-26T22:59:23.101Z,13.53
2023-10-26T23:01:51.540Z,13.58
2023-10-26T23:04:19.945Z,13.31
2023-10-26T23:06:48.171Z,13.08
2023-10-26T23:09:17.197Z,13.18
2023-10-26T23:11:45.554Z,13.35
2023-10-26T23:14:14.035Z,13.43
2023-10-26T23:16:47.523Z,13.46
2023-10-26T23:19:18.771Z,13.52
2023-10-26T23:21:47.586Z,13.63
2023-10-26T23:24:19.102Z,13.74
2023-10-26T23:26:48.766Z,13.73
2023-10-26T23:29:16.831Z,13.84
2023-10-26T23:31:44.849Z,13.94
2023-10-26T23:34:12.979Z,13.96
2023-10-26T23:36:41.309Z,13.95
2023-10-26T23:39:09.685Z,13.96
2023-10-26T23:41:37.962Z,14.06
2023-10-26T23:44:06.288Z,14.15
2023-10-26T23:46:34.951Z,14.25
2023-10-26T23:49:03.150Z,14.29
2023-10-26T23:51:31.167Z,14.31
2023-10-26T23:53:59.288Z,14.25
2023-10-26T23:56:27.424Z,14.23
2023-10-26T23:58:56.467Z,14.44
